Time,TemperatureF,DewpointF,PressureIn,WindDirection,WindDirectionDegrees,WindSpeedMPH,WindSpeedGustMPH,Humidity,HourlyPrecipIn,Conditions,Clouds,dailyrainin,SoftwareType,DateUTC
2013-05-17 00:02:00,56.2,42.5,29.96,NNE,15,8.0,8.0,60,0.00,,,0.00,Wunderground v.1.15,2013-05-17 04:02:00,
2013-05-17 00:07:00,55.9,42.2,29.97,NNE,16,8.0,8.0,60,0.00,,,0.00,Wunderground v.1.15,2013-05-17 04:07:00,
2013-05-17 00:12:00,55.7,41.6,29.97,NNE,12,8.0,12.0,59,0.00,,,0.00,Wunderground v.1.15,2013-05-17 04:12:00,
2013-05-17 00:17:00,55.5,41.4,29.97,NNE,22,8.0,8.0,59,0.00,,,0.00,Wunderground v.1.15,2013-05-17 04:17:00,
2013-05-17 00:22:00,55.4,41.3,29.97,NNE,24,8.0,8.0,59,0.00,,,0.00,Wunderground v.1.15,2013-05-17 04:22:00,
2013-05-17 00:27:00,55.3,40.8,29.97,NNE,30,8.0,8.0,58,0.00,,,0.00,Wunderground v.1.15,2013-05-17 04:27:00,
2013-05-17 00:32:00,55.2,40.7,29.98,NE,38,8.0,8.0,58,0.00,,,0.00,Wunderground v.1.15,2013-05-17 04:32:00,
2013-05-17 00:42:00,55.3,39.9,29.98,NE,39,8.0,10.0,56,0.00,,,0.00,Wunderground v.1.15,2013-05-17 04:42:00,
2013-05-17 00:47:00,55.3,39.9,29.98,NNE,30,8.0,8.0,56,0.00,,,0.00,Wunderground v.1.15,2013-05-17 04:47:00,
2013-05-17 00:52:00,55.4,40.0,29.98,NE,48,9.0,10.0,56,0.00,,,0.00,Wunderground v.1.15,2013-05-17 04:52:00,
2013-05-17 00:58:00,55.5,39.6,29.99,NE,52,9.0,11.0,55,0.00,,,0.00,Wunderground v.1.15,2013-05-17 04:58:00,
2013-05-17 01:07:00,55.2,39.8,29.99,NNE,28,9.0,10.0,56,0.00,,,0.00,Wunderground v.1.15,2013-05-17 05:07:00,
2013-05-17 01:12:00,55.1,39.7,29.99,NE,34,9.0,10.0,56,0.00,,,0.00,Wunderground v.1.15,2013-05-17 05:12:00,
2013-05-17 01:17:00,55.2,39.3,29.99,NE,40,10.0,10.0,55,0.00,,,0.00,Wunderground v.1.15,2013-05-17 05:17:00,
2013-05-17 01:27:00,55.0,39.6,29.99,NE,34,9.0,9.0,56,0.00,,,0.00,Wunderground v.1.15,2013-05-17 05:27:00,
2013-05-17 01:37:00,54.6,39.7,29.99,NNE,28,8.0,8.0,57,0.00,,,0.00,Wunderground v.1.15,2013-05-17 05:37:00,
2013-05-17 01:42:00,54.5,39.6,29.99,NE,44,8.0,9.0,57,0.00,,,0.00,Wunderground v.1.15,2013-05-17 05:42:00,
2013-05-17 01:47:00,54.6,39.7,29.99,NE,41,8.0,8.0,57,0.00,,,0.00,Wunderground v.1.15,2013-05-17 05:47:00,
2013-05-17 01:52:00,54.3,39.4,29.99,NE,42,7.0,8.0,57,0.00,,,0.00,Wunderground v.1.15,2013-05-17 05:52:00,
2013-05-17 01:58:00,54.3,39.4,29.99,NE,35,7.0,8.0,57,0.00,,,0.00,Wunderground v.1.15,2013-05-17 05:58:00,
2013-05-17 02:07:00,54.0,39.5,29.99,NNE,22,6.0,6.0,58,0.00,,,0.00,Wunderground v.1.15,2013-05-17 06:07:00,
2013-05-17 02:12:00,53.7,39.3,29.99,NNE,29,6.0,7.0,58,0.00,,,0.00,Wunderground v.1.15,2013-05-17 06:12:00,
2013-05-17 02:17:00,53.6,39.2,29.99,NE,36,7.0,7.0,58,0.00,,,0.00,Wunderground v.1.15,2013-05-17 06:17:00,
2013-05-17 02:22:00,53.6,39.2,29.99,NE,42,7.0,7.0,58,0.00,,,0.00,Wunderground v.1.15,2013-05-17 06:22:00,
2013-05-17 02:27:00,53.5,39.5,29.99,NE,54,6.0,6.0,59,0.00,,,0.00,Wunderground v.1.15,2013-05-17 06:27:00,
2013-05-17 02:37:00,53.0,39.0,29.98,ENE,58,4.0,4.0,59,0.00,,,0.00,Wunderground v.1.15,2013-05-17 06:37:00,
2013-05-17 02:42:00,52.8,39.7,29.98,ENE,63,2.0,4.0,61,0.00,,,0.00,Wunderground v.1.15,2013-05-17 06:42:00,
2013-05-17 02:47:00,53.1,42.4,29.98,ENE,70,2.0,5.0,67,0.00,,,0.00,Wunderground v.1.15,2013-05-17 06:47:00,
2013-05-17 02:52:00,54.1,43.8,29.98,NE,51,5.0,11.0,68,0.00,,,0.00,Wunderground v.1.15,2013-05-17 06:52:00,
2013-05-17 02:58:00,55.7,44.1,29.99,NE,49,9.0,9.0,65,0.00,,,0.00,Wunderground v.1.15,2013-05-17 06:58:00,
2013-05-17 03:07:00,55.8,44.2,29.99,NE,53,10.0,10.0,65,0.00,,,0.00,Wunderground v.1.15,2013-05-17 07:07:00,
2013-05-17 03:12:00,55.7,44.5,29.99,NE,52,9.0,10.0,66,0.00,,,0.00,Wunderground v.1.15,2013-05-17 07:12:00,
2013-05-17 03:22:00,55.2,44.4,29.99,NE,55,9.0,10.0,67,0.00,,,0.00,Wunderground v.1.15,2013-05-17 07:22:00,
2013-05-17 03:27:00,55.2,44.4,30.00,NE,52,9.0,9.0,67,0.00,,,0.00,Wunderground v.1.15,2013-05-17 07:27:00,
2013-05-17 03:32:00,54.9,42.1,30.00,NNE,30,8.0,9.0,62,0.00,,,0.00,Wunderground v.1.15,2013-05-17 07:32:00,
2013-05-17 03:37:00,53.7,41.0,30.00,NNE,24,7.0,7.0,62,0.00,,,0.00,Wunderground v.1.15,2013-05-17 07:37:00,
2013-05-17 03:42:00,52.7,40.5,30.00,NNE,27,6.0,7.0,63,0.00,,,0.00,Wunderground v.1.15,2013-05-17 07:42:00,
2013-05-17 03:47:00,52.2,40.4,30.00,NNE,27,6.0,6.0,64,0.00,,,0.00,Wunderground v.1.15,2013-05-17 07:47:00,
2013-05-17 03:57:00,51.5,40.1,29.99,NE,40,6.0,6.0,65,0.00,,,0.00,Wunderground v.1.15,2013-05-17 07:57:00,
2013-05-17 04:07:00,51.1,40.5,30.00,NE,36,5.0,5.0,67,0.00,,,0.00,Wunderground v.1.15,2013-05-17 08:07:00,
2013-05-17 04:12:00,50.8,40.2,30.00,NNE,27,4.0,5.0,67,0.00,,,0.00,Wunderground v.1.15,2013-05-17 08:12:00,
2013-05-17 04:17:00,50.6,40.4,30.00,NNE,29,4.0,4.0,68,0.00,,,0.00,Wunderground v.1.15,2013-05-17 08:17:00,
2013-05-17 04:22:00,50.5,40.7,30.00,NNE,28,3.0,4.0,69,0.00,,,0.00,Wunderground v.1.15,2013-05-17 08:22:00,
2013-05-17 04:32:00,50.1,40.7,30.01,NNE,17,2.0,2.0,70,0.00,,,0.00,Wunderground v.1.15,2013-05-17 08:32:00,
2013-05-17 04:37:00,49.8,40.0,30.01,NNE,14,2.0,3.0,69,0.00,,,0.00,Wunderground v.1.15,2013-05-17 08:37:00,
2013-05-17 04:42:00,49.4,40.4,30.01,NNE,17,2.0,4.0,71,0.00,,,0.00,Wunderground v.1.15,2013-05-17 08:42:00,
2013-05-17 04:47:00,49.2,40.6,30.01,NNE,20,4.0,4.0,72,0.00,,,0.00,Wunderground v.1.15,2013-05-17 08:47:00,
2013-05-17 04:52:00,49.2,40.6,30.01,NNE,26,4.0,4.0,72,0.00,,,0.00,Wunderground v.1.15,2013-05-17 08:52:00,
2013-05-17 04:57:00,49.4,40.7,30.01,NNE,15,5.0,5.0,72,0.00,,,0.00,Wunderground v.1.15,2013-05-17 08:57:00,
2013-05-17 05:07:00,49.4,40.7,30.02,NNE,27,4.0,4.0,72,0.00,,,0.00,Wunderground v.1.15,2013-05-17 09:07:00,
2013-05-17 05:12:00,49.3,40.7,30.02,NNE,24,4.0,5.0,72,0.00,,,0.00,Wunderground v.1.15,2013-05-17 09:12:00,
2013-05-17 05:17:00,49.3,40.7,30.02,NE,36,5.0,6.0,72,0.00,,,0.00,Wunderground v.1.15,2013-05-17 09:17:00,
2013-05-17 05:22:00,49.4,41.1,30.02,NE,42,5.0,6.0,73,0.00,,,0.00,Wunderground v.1.15,2013-05-17 09:22:00,
2013-05-17 05:27:00,49.7,42.4,30.02,NE,46,4.0,4.0,76,0.00,,,0.00,Wunderground v.1.15,2013-05-17 09:27:00,
2013-05-17 05:32:00,51.8,45.2,30.02,ENE,70,6.0,9.0,78,0.00,,,0.00,Wunderground v.1.15,2013-05-17 09:32:00,
2013-05-17 05:37:00,53.2,45.5,30.03,ENE,67,9.0,9.0,75,0.00,,,0.00,Wunderground v.1.15,2013-05-17 09:37:00,
2013-05-17 05:42:00,53.6,45.5,30.03,ENE,71,9.0,9.0,74,0.00,,,0.00,Wunderground v.1.15,2013-05-17 09:42:00,
2013-05-17 05:47:00,53.7,45.2,30.03,ENE,65,9.0,9.0,73,0.00,,,0.00,Wunderground v.1.15,2013-05-17 09:47:00,
2013-05-17 05:57:00,53.7,45.6,30.03,ENE,65,9.0,11.0,74,0.00,,,0.00,Wunderground v.1.15,2013-05-17 09:57:00,
2013-05-17 06:07:00,53.5,45.4,30.03,ENE,67,11.0,12.0,74,0.00,,,0.00,Wunderground v.1.15,2013-05-17 10:07:00,
2013-05-17 06:17:00,53.4,45.7,30.04,NE,54,10.0,10.0,75,0.00,,,0.00,Wunderground v.1.15,2013-05-17 10:17:00,
2013-05-17 06:22:00,53.3,45.9,30.04,ENE,66,10.0,10.0,76,0.00,,,0.00,Wunderground v.1.15,2013-05-17 10:22:00,
2013-05-17 06:27:00,53.3,45.9,30.04,ENE,61,10.0,10.0,76,0.00,,,0.00,Wunderground v.1.15,2013-05-17 10:27:00,
2013-05-17 06:32:00,53.5,46.1,30.04,ENE,71,10.0,11.0,76,0.00,,,0.00,Wunderground v.1.15,2013-05-17 10:32:00,
2013-05-17 06:37:00,53.5,46.1,30.04,NE,52,10.0,10.0,76,0.00,,,0.00,Wunderground v.1.15,2013-05-17 10:37:00,
2013-05-17 06:47:00,53.6,46.2,30.05,NE,56,10.0,12.0,76,0.00,,,0.00,Wunderground v.1.15,2013-05-17 10:47:00,
2013-05-17 06:52:00,53.8,46.4,30.05,ENE,61,10.0,12.0,76,0.00,,,0.00,Wunderground v.1.15,2013-05-17 10:52:00,
2013-05-17 06:57:00,53.9,46.9,30.05,ENE,61,10.0,10.0,77,0.00,,,0.00,Wunderground v.1.15,2013-05-17 10:57:00,
2013-05-17 07:07:00,54.4,47.0,30.06,ENE,74,10.0,10.0,76,0.00,,,0.00,Wunderground v.1.15,2013-05-17 11:07:00,
2013-05-17 07:12:00,54.6,47.2,30.06,ENE,66,10.0,11.0,76,0.00,,,0.00,Wunderground v.1.15,2013-05-17 11:12:00,
2013-05-17 07:17:00,54.8,47.0,30.05,ENE,75,10.0,12.0,75,0.00,,,0.00,Wunderground v.1.15,2013-05-17 11:17:00,
2013-05-17 07:22:00,55.0,47.2,30.05,ENE,67,11.0,12.0,75,0.00,,,0.00,Wunderground v.1.15,2013-05-17 11:22:00,
2013-05-17 07:27:00,55.1,47.3,30.05,ENE,67,10.0,10.0,75,0.00,,,0.00,Wunderground v.1.15,2013-05-17 11:27:00,
2013-05-17 07:32:00,55.2,47.4,30.06,ENE,76,10.0,10.0,75,0.00,,,0.00,Wunderground v.1.15,2013-05-17 11:32:00,
2013-05-17 07:42:00,55.9,47.7,30.06,East,80,11.0,11.0,74,0.00,,,0.00,Wunderground v.1.15,2013-05-17 11:42:00,
2013-05-17 07:47:00,56.3,48.1,30.06,ENE,69,11.0,11.0,74,0.00,,,0.00,Wunderground v.1.15,2013-05-17 11:47:00,
2013-05-17 07:52:00,56.8,47.9,30.06,ENE,70,12.0,13.0,72,0.00,,,0.00,Wunderground v.1.15,2013-05-17 11:52:00,
2013-05-17 07:57:00,56.9,47.6,30.06,ENE,72,13.0,13.0,71,0.00,,,0.00,Wunderground v.1.15,2013-05-17 11:57:00,
2013-05-17 08:07:00,57.0,47.3,30.06,East,92,12.0,12.0,70,0.00,,,0.00,Wunderground v.1.15,2013-05-17 12:07:00,
2013-05-17 08:12:00,56.9,47.2,30.07,East,92,12.0,12.0,70,0.00,,,0.00,Wunderground v.1.15,2013-05-17 12:12:00,
2013-05-17 08:17:00,56.5,47.2,30.07,East,82,13.0,13.0,71,0.00,,,0.00,Wunderground v.1.15,2013-05-17 12:17:00,
2013-05-17 08:22:00,56.4,46.7,30.07,ENE,71,12.0,13.0,70,0.00,,,0.00,Wunderground v.1.15,2013-05-17 12:22:00,
2013-05-17 08:27:00,56.5,47.2,30.07,East,79,10.0,10.0,71,0.00,,,0.00,Wunderground v.1.15,2013-05-17 12:27:00,
2013-05-17 08:32:00,57.0,48.1,30.07,East,82,9.0,11.0,72,0.00,,,0.00,Wunderground v.1.15,2013-05-17 12:32:00,
2013-05-17 08:37:00,57.5,48.5,30.07,East,80,9.0,9.0,72,0.00,,,0.00,Wunderground v.1.15,2013-05-17 12:37:00,
2013-05-17 08:47:00,58.4,48.7,30.08,ENE,66,10.0,10.0,70,0.00,,,0.00,Wunderground v.1.15,2013-05-17 12:47:00,
2013-05-17 08:52:00,58.4,48.7,30.08,East,82,11.0,11.0,70,0.00,,,0.00,Wunderground v.1.15,2013-05-17 12:52:00,
2013-05-17 08:57:00,58.4,48.3,30.07,ENE,69,11.0,12.0,69,0.00,,,0.00,Wunderground v.1.15,2013-05-17 12:57:00,
2013-05-17 09:07:00,58.7,48.6,30.07,East,96,13.0,13.0,69,0.00,,,0.00,Wunderground v.1.15,2013-05-17 13:07:00,
2013-05-17 09:12:00,59.0,48.4,30.07,ENE,78,12.0,13.0,68,0.00,,,0.00,Wunderground v.1.15,2013-05-17 13:12:00,
2013-05-17 09:17:00,59.1,48.9,30.08,ENE,61,12.0,12.0,69,0.00,,,0.00,Wunderground v.1.15,2013-05-17 13:17:00,
2013-05-17 09:22:00,59.5,49.3,30.08,ESE,103,12.0,12.0,69,0.00,,,0.00,Wunderground v.1.15,2013-05-17 13:22:00,
2013-05-17 09:27:00,59.6,49.0,30.09,ENE,71,12.0,12.0,68,0.00,,,0.00,Wunderground v.1.15,2013-05-17 13:27:00,
2013-05-17 09:32:00,59.5,48.9,30.09,ENE,63,13.0,13.0,68,0.00,,,0.00,Wunderground v.1.15,2013-05-17 13:32:00,
2013-05-17 09:37:00,59.3,49.1,30.10,East,83,13.0,13.0,69,0.00,,,0.00,Wunderground v.1.15,2013-05-17 13:37:00,
2013-05-17 09:42:00,59.5,48.9,30.10,ENE,65,13.0,13.0,68,0.00,,,0.00,Wunderground v.1.15,2013-05-17 13:42:00,
2013-05-17 09:52:00,59.4,48.4,30.10,ENE,61,13.0,17.0,67,0.00,,,0.00,Wunderground v.1.15,2013-05-17 13:52:00,
2013-05-17 09:57:00,59.2,49.0,30.10,ENE,65,13.0,13.0,69,0.00,,,0.00,Wunderground v.1.15,2013-05-17 13:57:00,
2013-05-17 10:07:00,59.7,48.7,30.10,East,86,13.0,13.0,67,0.00,,,0.00,Wunderground v.1.15,2013-05-17 14:07:00,
2013-05-17 10:17:00,60.0,48.6,30.10,ENE,75,12.0,13.0,66,0.00,,,0.00,Wunderground v.1.15,2013-05-17 14:17:00,
2013-05-17 10:22:00,59.4,48.8,30.10,NE,51,14.0,14.0,68,0.00,,,0.00,Wunderground v.1.15,2013-05-17 14:22:00,
2013-05-17 10:27:00,59.8,49.2,30.09,East,88,15.0,15.0,68,0.00,,,0.00,Wunderground v.1.15,2013-05-17 14:27:00,
2013-05-17 10:32:00,59.7,48.7,30.09,NE,54,14.0,15.0,67,0.00,,,0.00,Wunderground v.1.15,2013-05-17 14:32:00,
2013-05-17 10:37:00,59.8,48.4,30.10,ENE,64,14.0,14.0,66,0.00,,,0.00,Wunderground v.1.15,2013-05-17 14:37:00,
2013-05-17 10:42:00,60.2,49.2,30.09,ENE,68,14.0,15.0,67,0.00,,,0.00,Wunderground v.1.15,2013-05-17 14:42:00,
2013-05-17 10:52:00,60.0,48.6,30.09,East,82,13.0,14.0,66,0.00,,,0.00,Wunderground v.1.15,2013-05-17 14:52:00,
2013-05-17 10:57:00,59.6,49.0,30.09,ENE,70,14.0,14.0,68,0.00,,,0.00,Wunderground v.1.15,2013-05-17 14:57:00,
2013-05-17 11:06:00,60.8,50.2,30.09,East,79,12.0,12.0,68,0.00,,,0.00,Wunderground v.1.15,2013-05-17 15:06:00,
2013-05-17 11:12:00,61.0,49.6,30.09,ENE,74,11.0,13.0,66,0.00,,,0.00,Wunderground v.1.15,2013-05-17 15:12:00,
2013-05-17 11:17:00,60.9,50.3,30.09,ENE,73,11.0,16.0,68,0.00,,,0.00,Wunderground v.1.15,2013-05-17 15:17:00,
2013-05-17 11:22:00,60.3,49.7,30.09,East,84,13.0,16.0,68,0.00,,,0.00,Wunderground v.1.15,2013-05-17 15:22:00,
2013-05-17 11:27:00,60.8,49.8,30.09,ENE,57,13.0,16.0,67,0.00,,,0.00,Wunderground v.1.15,2013-05-17 15:27:00,
2013-05-17 11:32:00,61.0,50.4,30.10,East,84,12.0,16.0,68,0.00,,,0.00,Wunderground v.1.15,2013-05-17 15:32:00,
2013-05-17 11:37:00,60.7,49.7,30.10,ENE,66,12.0,13.0,67,0.00,,,0.00,Wunderground v.1.15,2013-05-17 15:37:00,
2013-05-17 11:42:00,60.9,49.9,30.10,East,94,12.0,13.0,67,0.00,,,0.00,Wunderground v.1.15,2013-05-17 15:42:00,
2013-05-17 11:52:00,60.8,49.4,30.10,ENE,59,11.0,14.0,66,0.00,,,0.00,Wunderground v.1.15,2013-05-17 15:52:00,
2013-05-17 11:57:00,61.1,48.8,30.10,ENE,61,12.0,12.0,64,0.00,,,0.00,Wunderground v.1.15,2013-05-17 15:57:00,
2013-05-17 12:07:00,62.5,49.3,30.10,ENE,76,10.0,10.0,62,0.00,,,0.00,Wunderground v.1.15,2013-05-17 16:07:00,
2013-05-17 12:12:00,62.3,48.2,30.10,East,91,11.0,17.0,60,0.00,,,0.00,Wunderground v.1.15,2013-05-17 16:12:00,
2013-05-17 12:17:00,62.4,49.6,30.10,ESE,106,11.0,11.0,63,0.00,,,0.00,Wunderground v.1.15,2013-05-17 16:17:00,
2013-05-17 12:22:00,61.8,49.9,30.10,East,89,10.0,14.0,65,0.00,,,0.00,Wunderground v.1.15,2013-05-17 16:22:00,
2013-05-17 12:32:00,62.0,49.3,30.10,ENE,65,11.0,11.0,63,0.00,,,0.00,Wunderground v.1.15,2013-05-17 16:32:00,
2013-05-17 12:37:00,62.0,48.4,30.10,ENE,69,13.0,15.0,61,0.00,,,0.00,Wunderground v.1.15,2013-05-17 16:37:00,
2013-05-17 12:47:00,61.9,48.3,30.10,East,90,13.0,13.0,61,0.00,,,0.00,Wunderground v.1.15,2013-05-17 16:47:00,
2013-05-17 12:52:00,62.2,48.6,30.10,East,83,12.0,13.0,61,0.00,,,0.00,Wunderground v.1.15,2013-05-17 16:52:00,
2013-05-17 12:57:00,62.8,49.6,30.10,ESE,103,12.0,12.0,62,0.00,,,0.00,Wunderground v.1.15,2013-05-17 16:57:00,
2013-05-17 13:07:00,62.9,47.9,30.09,ENE,71,13.0,16.0,58,0.00,,,0.00,Wunderground v.1.15,2013-05-17 17:07:00,
2013-05-17 13:12:00,62.9,48.8,30.09,East,96,14.0,16.0,60,0.00,,,0.00,Wunderground v.1.15,2013-05-17 17:12:00,
2013-05-17 13:22:00,62.9,48.3,30.09,East,80,14.0,18.0,59,0.00,,,0.00,Wunderground v.1.15,2013-05-17 17:22:00,
2013-05-17 13:27:00,62.8,49.1,30.09,East,89,14.0,14.0,61,0.00,,,0.00,Wunderground v.1.15,2013-05-17 17:27:00,
2013-05-17 13:32:00,62.7,49.5,30.09,ESE,106,13.0,14.0,62,0.00,,,0.00,Wunderground v.1.15,2013-05-17 17:32:00,
2013-05-17 13:37:00,62.5,49.3,30.09,East,100,11.0,11.0,62,0.00,,,0.00,Wunderground v.1.15,2013-05-17 17:37:00,
2013-05-17 13:42:00,62.6,51.1,30.09,East,101,11.0,11.0,66,0.00,,,0.00,Wunderground v.1.15,2013-05-17 17:42:00,
2013-05-17 13:47:00,63.0,48.9,30.09,ENE,66,12.0,17.0,60,0.00,,,0.00,Wunderground v.1.15,2013-05-17 17:47:00,
2013-05-17 13:57:00,63.3,49.6,30.09,East,81,13.0,13.0,61,0.00,,,0.00,Wunderground v.1.15,2013-05-17 17:57:00,
2013-05-17 14:07:00,63.4,51.0,30.09,East,92,11.0,16.0,64,0.00,,,0.00,Wunderground v.1.15,2013-05-17 18:07:00,
2013-05-17 14:12:00,63.2,49.1,30.09,East,86,11.0,16.0,60,0.00,,,0.00,Wunderground v.1.15,2013-05-17 18:12:00,
2013-05-17 14:22:00,62.6,50.2,30.09,East,88,10.0,12.0,64,0.00,,,0.00,Wunderground v.1.15,2013-05-17 18:22:00,
2013-05-17 14:27:00,62.5,49.3,30.09,East,100,10.0,15.0,62,0.00,,,0.00,Wunderground v.1.15,2013-05-17 18:27:00,
2013-05-17 14:32:00,63.0,50.2,30.10,SE,131,11.0,15.0,63,0.00,,,0.00,Wunderground v.1.15,2013-05-17 18:32:00,
2013-05-17 14:42:00,63.1,50.3,30.09,East,93,9.0,11.0,63,0.00,,,0.00,Wunderground v.1.15,2013-05-17 18:42:00,
2013-05-17 14:47:00,62.9,49.2,30.09,East,81,8.0,10.0,61,0.00,,,0.00,Wunderground v.1.15,2013-05-17 18:47:00,
2013-05-17 14:52:00,62.8,49.6,30.09,ENE,76,9.0,10.0,62,0.00,,,0.00,Wunderground v.1.15,2013-05-17 18:52:00,
2013-05-17 14:57:00,63.7,50.4,30.09,ESE,122,9.0,9.0,62,0.00,,,0.00,Wunderground v.1.15,2013-05-17 18:57:00,
2013-05-17 15:07:00,63.2,48.2,30.08,East,92,10.0,13.0,58,0.00,,,0.00,Wunderground v.1.15,2013-05-17 19:07:00,
2013-05-17 15:12:00,63.0,48.4,30.08,ESE,121,11.0,13.0,59,0.00,,,0.00,Wunderground v.1.15,2013-05-17 19:12:00,
2013-05-17 15:17:00,63.1,48.1,30.09,ENE,66,10.0,10.0,58,0.00,,,0.00,Wunderground v.1.15,2013-05-17 19:17:00,
2013-05-17 15:27:00,63.1,49.4,30.09,East,86,11.0,15.0,61,0.00,,,0.00,Wunderground v.1.15,2013-05-17 19:27:00,
2013-05-17 15:32:00,62.7,49.5,30.08,ESE,103,12.0,15.0,62,0.00,,,0.00,Wunderground v.1.15,2013-05-17 19:32:00,
2013-05-17 15:37:00,62.8,49.6,30.08,East,86,11.0,11.0,62,0.00,,,0.00,Wunderground v.1.15,2013-05-17 19:37:00,
2013-05-17 15:47:00,62.7,50.3,30.08,SE,125,11.0,11.0,64,0.00,,,0.00,Wunderground v.1.15,2013-05-17 19:47:00,
2013-05-17 15:52:00,62.4,48.8,30.08,East,98,10.0,13.0,61,0.00,,,0.00,Wunderground v.1.15,2013-05-17 19:52:00,
2013-05-17 15:57:00,62.7,48.6,30.08,East,82,10.0,10.0,60,0.00,,,0.00,Wunderground v.1.15,2013-05-17 19:57:00,
2013-05-17 16:07:00,61.8,49.1,30.08,ESE,112,11.0,11.0,63,0.00,,,0.00,Wunderground v.1.15,2013-05-17 20:07:00,
2013-05-17 16:12:00,61.5,48.4,30.08,ESE,103,11.0,13.0,62,0.00,,,0.00,Wunderground v.1.15,2013-05-17 20:12:00,
2013-05-17 16:17:00,61.3,49.4,30.08,East,94,11.0,11.0,65,0.00,,,0.00,Wunderground v.1.15,2013-05-17 20:17:00,
2013-05-17 16:22:00,61.3,48.2,30.08,East,96,11.0,15.0,62,0.00,,,0.00,Wunderground v.1.15,2013-05-17 20:22:00,
2013-05-17 16:27:00,61.3,48.2,30.08,East,95,12.0,12.0,62,0.00,,,0.00,Wunderground v.1.15,2013-05-17 20:27:00,
2013-05-17 16:32:00,61.4,48.7,30.08,ESE,109,12.0,12.0,63,0.00,,,0.00,Wunderground v.1.15,2013-05-17 20:32:00,
2013-05-17 16:37:00,61.5,48.4,30.07,East,84,12.0,15.0,62,0.00,,,0.00,Wunderground v.1.15,2013-05-17 20:37:00,
2013-05-17 16:42:00,61.4,49.9,30.07,ESE,114,12.0,15.0,66,0.00,,,0.00,Wunderground v.1.15,2013-05-17 20:42:00,
2013-05-17 16:52:00,61.2,48.1,30.07,East,95,12.0,15.0,62,0.00,,,0.00,Wunderground v.1.15,2013-05-17 20:52:00,
2013-05-17 16:57:00,61.3,48.2,30.07,East,90,11.0,16.0,62,0.00,,,0.00,Wunderground v.1.15,2013-05-17 20:57:00,
2013-05-17 17:07:00,60.9,48.6,30.07,East,90,11.0,14.0,64,0.00,,,0.00,Wunderground v.1.15,2013-05-17 21:07:00,
2013-05-17 17:17:00,61.5,48.8,30.07,East,87,10.0,15.0,63,0.00,,,0.00,Wunderground v.1.15,2013-05-17 21:17:00,
2013-05-17 17:22:00,61.6,49.7,30.07,East,90,9.0,15.0,65,0.00,,,0.00,Wunderground v.1.15,2013-05-17 21:22:00,
2013-05-17 17:27:00,61.3,48.2,30.07,SE,130,9.0,9.0,62,0.00,,,0.00,Wunderground v.1.15,2013-05-17 21:27:00,
2013-05-17 17:32:00,60.9,48.6,30.08,East,93,11.0,11.0,64,0.00,,,0.00,Wunderground v.1.15,2013-05-17 21:32:00,
2013-05-17 17:37:00,61.2,48.9,30.08,ESE,117,9.0,14.0,64,0.00,,,0.00,Wunderground v.1.15,2013-05-17 21:37:00,
2013-05-17 17:47:00,60.8,48.5,30.07,East,94,9.0,9.0,64,0.00,,,0.00,Wunderground v.1.15,2013-05-17 21:47:00,
2013-05-17 17:52:00,60.9,48.6,30.07,East,97,9.0,9.0,64,0.00,,,0.00,Wunderground v.1.15,2013-05-17 21:52:00,
2013-05-17 17:57:00,60.8,48.1,30.08,ESE,105,9.0,10.0,63,0.00,,,0.00,Wunderground v.1.15,2013-05-17 21:57:00,
2013-05-17 18:07:00,61.1,48.8,30.07,SE,124,8.0,8.0,64,0.00,,,0.00,Wunderground v.1.15,2013-05-17 22:07:00,
2013-05-17 18:17:00,60.7,48.0,30.07,East,99,9.0,9.0,63,0.00,,,0.00,Wunderground v.1.15,2013-05-17 22:17:00,
2013-05-17 18:22:00,60.4,48.2,30.08,ESE,105,9.0,9.0,64,0.00,,,0.00,Wunderground v.1.15,2013-05-17 22:22:00,
2013-05-17 18:27:00,60.2,48.8,30.07,East,96,9.0,9.0,66,0.00,,,0.00,Wunderground v.1.15,2013-05-17 22:27:00,
2013-05-17 18:32:00,60.2,47.6,30.07,East,93,8.0,13.0,63,0.00,,,0.00,Wunderground v.1.15,2013-05-17 22:32:00,
2013-05-17 18:37:00,59.9,47.7,30.07,SE,125,8.0,8.0,64,0.00,,,0.00,Wunderground v.1.15,2013-05-17 22:37:00,
2013-05-17 18:42:00,60.0,47.8,30.08,East,94,8.0,8.0,64,0.00,,,0.00,Wunderground v.1.15,2013-05-17 22:42:00,
2013-05-17 18:47:00,59.6,47.0,30.08,East,94,8.0,8.0,63,0.00,,,0.00,Wunderground v.1.15,2013-05-17 22:47:00,
2013-05-17 18:52:00,59.4,47.2,30.08,East,100,9.0,9.0,64,0.00,,,0.00,Wunderground v.1.15,2013-05-17 22:52:00,
2013-05-17 18:57:00,59.2,48.2,30.08,East,91,8.0,8.0,67,0.00,,,0.00,Wunderground v.1.15,2013-05-17 22:57:00,
2013-05-17 19:07:00,59.0,47.7,30.08,East,96,9.0,10.0,66,0.00,,,0.00,Wunderground v.1.15,2013-05-17 23:07:00,
2013-05-17 19:12:00,59.1,47.3,30.08,ESE,111,9.0,10.0,65,0.00,,,0.00,Wunderground v.1.15,2013-05-17 23:12:00,
2013-05-17 19:17:00,59.2,46.6,30.08,ENE,69,11.0,11.0,63,0.00,,,0.00,Wunderground v.1.15,2013-05-17 23:17:00,
2013-05-17 19:27:00,59.3,47.1,30.08,ESE,115,9.0,10.0,64,0.00,,,0.00,Wunderground v.1.15,2013-05-17 23:27:00,
2013-05-17 19:37:00,59.2,46.2,30.08,SE,127,10.0,10.0,62,0.00,,,0.00,Wunderground v.1.15,2013-05-17 23:37:00,
2013-05-17 19:42:00,59.1,46.5,30.09,ESE,113,10.0,10.0,63,0.00,,,0.00,Wunderground v.1.15,2013-05-17 23:42:00,
2013-05-17 19:47:00,59.1,47.3,30.09,ESE,115,8.0,12.0,65,0.00,,,0.00,Wunderground v.1.15,2013-05-17 23:47:00,
2013-05-17 19:52:00,59.1,46.9,30.09,East,88,8.0,13.0,64,0.00,,,0.00,Wunderground v.1.15,2013-05-17 23:52:00,
2013-05-17 19:57:00,59.2,47.0,30.09,ESE,111,9.0,11.0,64,0.00,,,0.00,Wunderground v.1.15,2013-05-17 23:57:00,
2013-05-17 20:07:00,59.4,47.6,30.09,ENE,71,10.0,10.0,65,0.00,,,0.00,Wunderground v.1.15,2013-05-18 00:07:00,
2013-05-17 20:12:00,59.3,47.5,30.09,East,90,9.0,10.0,65,0.00,,,0.00,Wunderground v.1.15,2013-05-18 00:12:00,
2013-05-17 20:17:00,59.2,47.4,30.09,ENE,71,8.0,11.0,65,0.00,,,0.00,Wunderground v.1.15,2013-05-18 00:17:00,
2013-05-17 20:22:00,59.1,46.9,30.09,East,84,10.0,15.0,64,0.00,,,0.00,Wunderground v.1.15,2013-05-18 00:22:00,
2013-05-17 20:31:00,58.9,46.3,30.10,ENE,71,9.0,11.0,63,0.00,,,0.00,Wunderground v.1.15,2013-05-18 00:31:00,
2013-05-17 20:37:00,58.7,46.1,30.10,East,81,9.0,9.0,63,0.00,,,0.00,Wunderground v.1.15,2013-05-18 00:37:00,
2013-05-17 20:42:00,58.7,46.1,30.10,ESE,117,9.0,9.0,63,0.00,,,0.00,Wunderground v.1.15,2013-05-18 00:42:00,
2013-05-17 20:47:00,58.5,46.4,30.10,East,94,9.0,14.0,64,0.00,,,0.00,Wunderground v.1.15,2013-05-18 00:47:00,
2013-05-17 20:52:00,58.3,46.6,30.10,East,86,9.0,14.0,65,0.00,,,0.00,Wunderground v.1.15,2013-05-18 00:52:00,
2013-05-17 20:57:00,58.2,45.7,30.10,East,88,9.0,9.0,63,0.00,,,0.00,Wunderground v.1.15,2013-05-18 00:57:00,
2013-05-17 21:07:00,57.9,46.2,30.10,East,86,10.0,10.0,65,0.00,,,0.00,Wunderground v.1.15,2013-05-18 01:07:00,
2013-05-17 21:12:00,57.8,47.3,30.10,ENE,77,10.0,10.0,68,0.00,,,0.00,Wunderground v.1.15,2013-05-18 01:12:00,
2013-05-17 21:17:00,57.7,47.2,30.10,ENE,76,9.0,12.0,68,0.00,,,0.00,Wunderground v.1.15,2013-05-18 01:17:00,
2013-05-17 21:22:00,57.7,47.6,30.10,ENE,76,9.0,12.0,69,0.00,,,0.00,Wunderground v.1.15,2013-05-18 01:22:00,
2013-05-17 21:32:00,57.8,46.9,30.10,ENE,76,9.0,9.0,67,0.00,,,0.00,Wunderground v.1.15,2013-05-18 01:32:00,
2013-05-17 21:37:00,57.9,47.0,30.10,East,90,9.0,9.0,67,0.00,,,0.00,Wunderground v.1.15,2013-05-18 01:37:00,
2013-05-17 21:42:00,58.1,46.4,30.10,East,80,10.0,10.0,65,0.00,,,0.00,Wunderground v.1.15,2013-05-18 01:42:00,
2013-05-17 21:47:00,58.2,46.1,30.10,East,85,11.0,11.0,64,0.00,,,0.00,Wunderground v.1.15,2013-05-18 01:47:00,
2013-05-17 21:52:00,58.2,45.2,30.10,ENE,78,12.0,13.0,62,0.00,,,0.00,Wunderground v.1.15,2013-05-18 01:52:00,
2013-05-17 21:57:00,58.3,45.3,30.10,East,91,11.0,11.0,62,0.00,,,0.00,Wunderground v.1.15,2013-05-18 01:57:00,
2013-05-17 22:07:00,58.2,46.1,30.11,ENE,67,9.0,12.0,64,0.00,,,0.00,Wunderground v.1.15,2013-05-18 02:07:00,
2013-05-17 22:12:00,58.1,46.4,30.11,East,81,9.0,12.0,65,0.00,,,0.00,Wunderground v.1.15,2013-05-18 02:12:00,
2013-05-17 22:17:00,58.1,46.8,30.11,NE,55,9.0,9.0,66,0.00,,,0.00,Wunderground v.1.15,2013-05-18 02:17:00,
2013-05-17 22:22:00,57.9,45.8,30.11,ENE,78,8.0,15.0,64,0.00,,,0.00,Wunderground v.1.15,2013-05-18 02:22:00,
2013-05-17 22:32:00,57.7,46.4,30.11,ENE,74,9.0,9.0,66,0.00,,,0.00,Wunderground v.1.15,2013-05-18 02:32:00,
2013-05-17 22:42:00,57.6,45.9,30.11,ENE,76,11.0,15.0,65,0.00,,,0.00,Wunderground v.1.15,2013-05-18 02:42:00,
2013-05-17 22:47:00,57.6,45.9,30.11,ENE,78,11.0,11.0,65,0.00,,,0.00,Wunderground v.1.15,2013-05-18 02:47:00,
2013-05-17 22:52:00,57.4,45.7,30.11,ENE,68,10.0,11.0,65,0.00,,,0.00,Wunderground v.1.15,2013-05-18 02:52:00,
2013-05-17 22:57:00,57.5,45.4,30.11,ENE,70,10.0,11.0,64,0.00,,,0.00,Wunderground v.1.15,2013-05-18 02:57:00,
2013-05-17 23:07:00,57.3,46.4,30.11,East,93,10.0,13.0,67,0.00,,,0.00,Wunderground v.1.15,2013-05-18 03:07:00,
2013-05-17 23:12:00,57.4,46.1,30.11,East,80,10.0,13.0,66,0.00,,,0.00,Wunderground v.1.15,2013-05-18 03:12:00,
2013-05-17 23:17:00,57.4,46.1,30.11,East,84,11.0,13.0,66,0.00,,,0.00,Wunderground v.1.15,2013-05-18 03:17:00,
2013-05-17 23:22:00,57.4,46.5,30.11,East,86,10.0,13.0,67,0.00,,,0.00,Wunderground v.1.15,2013-05-18 03:22:00,
2013-05-17 23:27:00,57.4,46.1,30.11,ESE,111,10.0,10.0,66,0.00,,,0.00,Wunderground v.1.15,2013-05-18 03:27:00,
2013-05-17 23:32:00,57.5,46.6,30.11,ENE,71,11.0,11.0,67,0.00,,,0.00,Wunderground v.1.15,2013-05-18 03:32:00,
2013-05-17 23:37:00,57.4,46.9,30.11,ESE,108,11.0,13.0,68,0.00,,,0.00,Wunderground v.1.15,2013-05-18 03:37:00,
2013-05-17 23:42:00,57.5,47.0,30.11,ENE,64,10.0,13.0,68,0.00,,,0.00,Wunderground v.1.15,2013-05-18 03:42:00,
2013-05-17 23:47:00,57.4,47.3,30.11,East,90,10.0,10.0,69,0.00,,,0.00,Wunderground v.1.15,2013-05-18 03:47:00,
2013-05-17 23:52:00,57.5,47.4,30.11,ENE,69,10.0,10.0,69,0.00,,,0.00,Wunderground v.1.15,2013-05-18 03:52:00,
2013-05-17 23:57:00,57.3,47.6,30.11,East,84,9.0,9.0,70,0.00,,,0.00,Wunderground v.1.15,2013-05-18 03:57:00,